createdAt,value
2022-11-05T00:01:16.100Z,86.17
2022-11-05T00:06:36.725Z,87.74
2022-11-05T00:11:57.091Z,87.26
2022-11-05T00:16:58.713Z,86.10
2022-11-05T00:22:19.367Z,87.54
2022-11-05T00:27:21.001Z,88.04
2022-11-05T00:32:24.717Z,88.39
2022-11-05T00:37:29.902Z,87.61
2022-11-05T00:42:51.971Z,87.81
2022-11-05T00:48:12.371Z,88.79
2022-11-05T00:53:14.353Z,88.08
2022-11-05T00:58:21.839Z,87.62
2022-11-05T01:03:33.469Z,88.86
2022-11-05T01:08:35.321Z,88.36
2022-11-05T01:13:38.242Z,88.29
2022-11-05T01:18:39.931Z,88.56
2022-11-05T01:23:41.974Z,88.39
2022-11-05T01:28:43.609Z,88.78
2022-11-05T01:33:46.340Z,89.63
2022-11-05T01:38:48.002Z,89.72
2022-11-05T01:43:54.940Z,90.80
2022-11-05T01:49:07.038Z,90.41
2022-11-05T01:54:13.650Z,90.87
2022-11-05T01:59:23.302Z,90.26
2022-11-05T02:04:31.948Z,89.13
2022-11-05T02:09:39.538Z,89.85
2022-11-05T02:14:41.239Z,90.64
2022-11-05T02:20:07.465Z,89.93
2022-11-05T02:25:15.074Z,89.94
2022-11-05T02:30:35.704Z,89.38
2022-11-05T02:35:49.639Z,89.48
2022-11-05T02:41:03.425Z,89.16
2022-11-05T02:46:14.796Z,89.80
2022-11-05T02:51:27.127Z,89.11
2022-11-05T02:56:40.080Z,89.89
2022-11-05T03:01:43.915Z,89.18
2022-11-05T03:06:51.215Z,90.51
2022-11-05T03:12:28.674Z,89.95
2022-11-05T03:17:38.012Z,88.97
2022-11-05T03:22:54.440Z,89.99
2022-11-05T03:28:03.626Z,90.02
2022-11-05T03:33:11.982Z,89.01
2022-11-05T03:38:21.577Z,89.51
2022-11-05T03:43:28.637Z,89.23
2022-11-05T03:48:33.325Z,89.56
2022-11-05T03:53:44.477Z,90.26
2022-11-05T03:58:47.365Z,90.42
2022-11-05T04:03:48.985Z,90.73
2022-11-05T04:09:09.569Z,91.06
2022-11-05T04:14:11.217Z,90.58
2022-11-05T04:19:12.872Z,91.75
2022-11-05T04:24:14.724Z,91.91
2022-11-05T04:29:35.042Z,90.32
2022-11-05T04:34:36.606Z,90.96
2022-11-05T04:39:38.204Z,91.42
2022-11-05T04:44:40.058Z,91.72
2022-11-05T04:49:41.821Z,91.70
2022-11-05T04:54:44.191Z,91.55
2022-11-05T04:59:49.571Z,92.39
2022-11-05T05:04:51.287Z,92.49
2022-11-05T05:09:54.967Z,92.76
2022-11-05T05:14:57.279Z,93.07
2022-11-05T05:20:17.774Z,93.97
2022-11-05T05:25:19.437Z,92.69
2022-11-05T05:30:21.094Z,92.67
2022-11-05T05:35:22.920Z,92.54
2022-11-05T05:40:24.832Z,93.12
2022-11-05T05:45:26.556Z,92.71
2022-11-05T05:50:28.249Z,92.20
2022-11-05T05:55:29.929Z,92.00
2022-11-05T06:01:05.687Z,92.32
2022-11-05T06:06:13.058Z,92.14
2022-11-05T06:11:15.163Z,93.73
2022-11-05T06:16:19.613Z,93.66
2022-11-05T06:21:21.375Z,94.32
2022-11-05T06:26:23.150Z,95.21
2022-11-05T06:31:25.210Z,96.21
2022-11-05T06:36:26.905Z,96.69
2022-11-05T06:41:28.632Z,97.99
2022-11-05T06:46:30.474Z,96.50
2022-11-05T06:51:32.308Z,96.03
2022-11-05T06:56:35.448Z,97.16
2022-11-05T07:01:37.602Z,97.43
2022-11-05T07:06:39.505Z,96.99
2022-11-05T07:11:41.385Z,97.26
2022-11-05T07:16:43.221Z,97.32
2022-11-05T07:21:48.386Z,97.34
2022-11-05T07:26:50.262Z,97.76
2022-11-05T07:31:52.042Z,97.59
2022-11-05T07:36:53.717Z,97.79
2022-11-05T07:41:56.008Z,97.76
2022-11-05T07:46:57.894Z,98.24
2022-11-05T07:51:59.618Z,98.63
2022-11-05T07:57:01.544Z,97.94
2022-11-05T08:02:03.375Z,98.86
2022-11-05T08:07:05.724Z,98.70
2022-11-05T08:12:08.599Z,99.43
2022-11-05T08:17:11.612Z,99.21
2022-11-05T08:22:15.456Z,99.16
2022-11-05T08:27:17.181Z,98.72
2022-11-05T08:32:19.068Z,99.17
2022-11-05T08:37:20.785Z,99.73
2022-11-05T08:42:22.554Z,99.41
2022-11-05T08:47:25.230Z,99.52
2022-11-05T08:52:26.946Z,99.86
2022-11-05T08:57:28.731Z,100.00
2022-11-05T09:02:30.579Z,100.00
2022-11-05T09:07:32.446Z,100.00
2022-11-05T09:12:34.325Z,100.00
2022-11-05T09:17:36.404Z,98.43
2022-11-05T09:22:43.081Z,97.97
2022-11-05T09:27:45.223Z,96.38
2022-11-05T09:32:46.932Z,94.47
2022-11-05T09:37:48.524Z,93.53
2022-11-05T09:42:52.588Z,92.51
2022-11-05T09:48:09.973Z,91.71
2022-11-05T09:53:22.237Z,92.09
2022-11-05T09:58:43.684Z,91.30
2022-11-05T10:03:49.841Z,90.67
2022-11-05T10:09:03.558Z,89.99
2022-11-05T10:14:20.160Z,90.24
2022-11-05T10:19:30.448Z,91.24
2022-11-05T10:24:32.108Z,92.44
2022-11-05T10:29:35.030Z,93.83
2022-11-05T10:34:39.275Z,93.68
2022-11-05T10:39:41.105Z,94.19
2022-11-05T10:45:08.110Z,94.05
2022-11-05T10:50:18.800Z,94.12
2022-11-05T10:55:45.486Z,94.92
2022-11-05T11:00:50.279Z,95.44
2022-11-05T11:05:59.909Z,96.23
2022-11-05T11:11:11.457Z,95.82
2022-11-05T11:16:15.966Z,94.32
2022-11-05T11:21:26.388Z,94.46
2022-11-05T11:26:39.928Z,93.92
2022-11-05T11:31:42.096Z,92.66
2022-11-05T11:36:46.685Z,92.18
2022-11-05T11:41:54.917Z,91.62
2022-11-05T11:47:02.100Z,89.73
2022-11-05T11:52:11.321Z,87.41
2022-11-05T11:57:29.433Z,87.54
2022-11-05T12:02:44.837Z,85.72
2022-11-05T12:07:53.024Z,85.79
2022-11-05T12:13:00.564Z,85.24
2022-11-05T12:18:06.096Z,85.78
2022-11-05T12:23:28.829Z,85.86
2022-11-05T12:29:17.986Z,85.18
2022-11-05T12:34:47.929Z,85.13
2022-11-05T12:40:31.281Z,84.17
2022-11-05T12:46:06.538Z,84.06
2022-11-05T12:51:23.760Z,84.13
2022-11-05T12:56:37.882Z,84.09
2022-11-05T13:01:57.889Z,84.43
2022-11-05T13:07:05.405Z,83.45
2022-11-05T13:12:17.576Z,83.50
2022-11-05T13:17:29.801Z,82.54
2022-11-05T13:22:42.868Z,82.56
2022-11-05T13:27:52.278Z,83.21
2022-11-05T13:33:10.809Z,82.99
2022-11-05T13:38:44.292Z,82.52
2022-11-05T13:44:20.264Z,83.14
2022-11-05T13:49:39.276Z,84.20
2022-11-05T13:55:12.553Z,84.48
2022-11-05T14:00:21.202Z,85.43
2022-11-05T14:05:27.112Z,86.82
2022-11-05T14:10:56.925Z,86.96
2022-11-05T14:16:16.928Z,87.10
2022-11-05T14:21:27.400Z,87.42
2022-11-05T14:26:33.164Z,88.04
2022-11-05T14:32:07.674Z,87.81
2022-11-05T14:37:11.857Z,87.44
2022-11-05T14:42:18.793Z,88.93
2022-11-05T14:47:23.085Z,88.57
2022-11-05T14:52:24.727Z,88.72
2022-11-05T14:57:44.522Z,88.27
2022-11-05T15:02:56.909Z,87.97
2022-11-05T15:07:59.376Z,88.75
2022-11-05T15:13:06.332Z,89.33
2022-11-05T15:18:38.906Z,90.25
2022-11-05T15:23:45.259Z,91.20
2022-11-05T15:28:54.164Z,92.76
2022-11-05T15:34:22.680Z,94.31
2022-11-05T15:39:40.385Z,95.31
2022-11-05T15:44:47.574Z,96.04
2022-11-05T15:49:56.095Z,97.33
2022-11-05T15:55:14.844Z,97.51
2022-11-05T16:00:23.638Z,98.55
2022-11-05T16:05:27.872Z,99.41
2022-11-05T16:10:33.351Z,99.68
2022-11-05T16:15:35.268Z,99.58
2022-11-05T16:20:38.681Z,100.00
2022-11-05T16:25:43.723Z,100.00
2022-11-05T16:31:12.057Z,100.00
2022-11-05T16:36:13.870Z,100.00
2022-11-05T16:41:18.540Z,100.00
2022-11-05T16:46:23.287Z,100.00
2022-11-05T16:51:28.220Z,100.00
2022-11-05T16:56:30.914Z,100.00
2022-11-05T17:01:34.380Z,100.00
2022-11-05T17:06:36.137Z,100.00
2022-11-05T17:11:37.758Z,100.00
2022-11-05T17:16:40.497Z,100.00
2022-11-05T17:21:42.174Z,100.00
2022-11-05T17:26:43.929Z,100.00
2022-11-05T17:31:45.623Z,100.00
2022-11-05T17:36:47.285Z,100.00
2022-11-05T17:41:49.069Z,100.00
2022-11-05T17:46:51.301Z,100.00
2022-11-05T17:51:52.978Z,100.00
2022-11-05T17:56:54.722Z,100.00
2022-11-05T18:01:56.676Z,100.00
2022-11-05T18:06:58.510Z,100.00
2022-11-05T18:12:00.316Z,100.00
2022-11-05T18:17:02.121Z,100.00
2022-11-05T18:22:03.846Z,100.00
2022-11-05T18:27:05.503Z,100.00
2022-11-05T18:32:07.197Z,100.00
2022-11-05T18:37:08.809Z,100.00
2022-11-05T18:42:10.827Z,100.00
2022-11-05T18:47:15.927Z,100.00
2022-11-05T18:52:17.650Z,100.00
2022-11-05T18:57:20.755Z,100.00
2022-11-05T19:02:30.066Z,100.00
2022-11-05T19:07:31.852Z,100.00
2022-11-05T19:12:33.500Z,100.00
2022-11-05T19:17:36.304Z,100.00
2022-11-05T19:22:40.807Z,100.00
2022-11-05T19:27:43.722Z,100.00
2022-11-05T19:32:45.509Z,100.00
2022-11-05T19:37:47.157Z,100.00
2022-11-05T19:42:48.829Z,100.00
2022-11-05T19:47:50.648Z,100.00
2022-11-05T19:52:54.206Z,99.74
2022-11-05T19:57:56.577Z,99.40
2022-11-05T20:02:58.442Z,99.50
2022-11-05T20:08:00.469Z,99.41
2022-11-05T20:13:02.259Z,98.80
2022-11-05T20:18:04.033Z,98.84
2022-11-05T20:23:05.700Z,99.03
2022-11-05T20:28:07.438Z,98.58
2022-11-05T20:33:11.776Z,98.65
2022-11-05T20:38:13.918Z,99.35
2022-11-05T20:43:16.051Z,99.18
2022-11-05T20:48:17.808Z,99.22
2022-11-05T20:53:19.719Z,98.71
2022-11-05T20:58:21.457Z,98.33
2022-11-05T21:03:24.361Z,98.62
2022-11-05T21:08:27.599Z,98.67
2022-11-05T21:13:30.363Z,98.55
2022-11-05T21:18:34.354Z,98.59
2022-11-05T21:23:36.302Z,99.19
2022-11-05T21:28:40.759Z,99.47
2022-11-05T21:33:42.618Z,99.16
2022-11-05T21:38:44.281Z,99.35
2022-11-05T21:43:45.978Z,99.61
2022-11-05T21:49:10.929Z,99.42
2022-11-05T21:54:31.369Z,99.52
2022-11-05T21:59:48.530Z,99.68
2022-11-05T22:04:52.940Z,99.45
2022-11-05T22:09:55.209Z,99.67
2022-11-05T22:14:57.240Z,99.49
2022-11-05T22:19:58.864Z,99.70
2022-11-05T22:25:00.535Z,99.89
2022-11-05T22:30:02.221Z,100.00
2022-11-05T22:35:04.081Z,100.00
2022-11-05T22:40:06.431Z,100.00
2022-11-05T22:45:08.582Z,100.00
2022-11-05T22:50:10.803Z,100.00
2022-11-05T22:55:12.510Z,100.00
2022-11-05T23:00:20.141Z,100.00
2022-11-05T23:05:21.822Z,100.00
2022-11-05T23:10:42.452Z,100.00
2022-11-05T23:16:02.660Z,100.00
2022-11-05T23:21:23.371Z,100.00
2022-11-05T23:26:43.610Z,100.00
2022-11-05T23:32:04.106Z,100.00
2022-11-05T23:37:24.642Z,100.00
2022-11-05T23:42:44.888Z,100.00
2022-11-05T23:48:05.237Z,100.00
2022-11-05T23:53:08.665Z,100.00
2022-11-05T23:58:10.922Z,100.00
